sensor_id;sensor_type;location;lat;lon;timestamp;pressure;altitude;pressure_sealevel;temperature;humidity
48800;BME280;34611;47.964;7.982;2023-07-20T00:01:54;96760.84;;;17.91;65.78
48800;BME280;34611;47.964;7.982;2023-07-20T00:08:55;96764.28;;;17.91;65.71
48800;BME280;34611;47.964;7.982;2023-07-20T00:15:55;96775.63;;;17.92;65.85
48800;BME280;34611;47.964;7.982;2023-07-20T00:22:56;96763.47;;;17.91;65.72
48800;BME280;34611;47.964;7.982;2023-07-20T00:29:57;96776.59;;;17.91;65.80
48800;BME280;34611;47.964;7.982;2023-07-20T00:36:58;96766.09;;;17.91;65.71
48800;BME280;34611;47.964;7.982;2023-07-20T00:43:58;96771.34;;;17.91;65.71
48800;BME280;34611;47.964;7.982;2023-07-20T00:50:59;96773.97;;;17.91;65.79
48800;BME280;34611;47.964;7.982;2023-07-20T00:58:00;96762.66;;;17.90;65.75
48800;BME280;34611;47.964;7.982;2023-07-20T01:05:01;96765.28;;;17.90;65.77
48800;BME280;34611;47.964;7.982;2023-07-20T01:12:08;96750.31;;;17.91;65.79
48800;BME280;34611;47.964;7.982;2023-07-20T01:19:13;96750.31;;;17.91;65.74
48800;BME280;34611;47.964;7.982;2023-07-20T01:26:25;96749.50;;;17.90;65.72
48800;BME280;34611;47.964;7.982;2023-07-20T01:33:27;96743.22;;;17.91;65.70
48800;BME280;34611;47.964;7.982;2023-07-20T01:40:29;96747.69;;;17.91;65.78
48800;BME280;34611;47.964;7.982;2023-07-20T01:47:30;96745.06;;;17.91;65.80
48800;BME280;34611;47.964;7.982;2023-07-20T01:54:30;96746.88;;;17.90;65.75
48800;BME280;34611;47.964;7.982;2023-07-20T02:01:30;96734.53;;;17.91;65.74
48800;BME280;34611;47.964;7.982;2023-07-20T02:08:30;96740.81;;;17.90;65.74
48800;BME280;34611;47.964;7.982;2023-07-20T02:15:31;96733.72;;;17.90;65.70
48800;BME280;34611;47.964;7.982;2023-07-20T02:22:31;96729.28;;;17.91;65.84
48800;BME280;34611;47.964;7.982;2023-07-20T02:29:31;96731.09;;;17.90;65.73
48800;BME280;34611;47.964;7.982;2023-07-20T02:36:32;96726.81;;;17.89;65.77
48800;BME280;34611;47.964;7.982;2023-07-20T02:43:35;96734.69;;;17.89;65.71
48800;BME280;34611;47.964;7.982;2023-07-20T02:50:35;96733.72;;;17.90;65.79
48800;BME280;34611;47.964;7.982;2023-07-20T02:57:35;96734.53;;;17.91;65.81
48800;BME280;34611;47.964;7.982;2023-07-20T03:04:35;96726.66;;;17.91;65.69
48800;BME280;34611;47.964;7.982;2023-07-20T03:11:37;96731.09;;;17.90;65.78
48800;BME280;34611;47.964;7.982;2023-07-20T03:18:38;96738.97;;;17.90;65.84
48800;BME280;34611;47.964;7.982;2023-07-20T03:25:38;96726.81;;;17.89;65.74
48800;BME280;34611;47.964;7.982;2023-07-20T03:32:39;96732.91;;;17.90;65.85
48800;BME280;34611;47.964;7.982;2023-07-20T03:39:39;96740.81;;;17.90;65.61
48800;BME280;34611;47.964;7.982;2023-07-20T03:46:41;96740.81;;;17.90;65.73
48800;BME280;34611;47.964;7.982;2023-07-20T03:53:41;96748.69;;;17.90;65.67
48800;BME280;34611;47.964;7.982;2023-07-20T04:00:46;96746.06;;;17.90;65.78
48800;BME280;34611;47.964;7.982;2023-07-20T04:07:46;96742.59;;;17.89;65.84
48800;BME280;34611;47.964;7.982;2023-07-20T04:14:47;96759.22;;;17.90;65.80
48800;BME280;34611;47.964;7.982;2023-07-20T04:21:47;96752.31;;;17.89;65.76
48800;BME280;34611;47.964;7.982;2023-07-20T04:28:47;96760.19;;;17.89;65.79
48800;BME280;34611;47.964;7.982;2023-07-20T04:35:57;96757.56;;;17.89;65.71
48800;BME280;34611;47.964;7.982;2023-07-20T04:43:01;96753.31;;;17.88;65.81
48800;BME280;34611;47.964;7.982;2023-07-20T04:50:02;96762.81;;;17.89;65.70
48800;BME280;34611;47.964;7.982;2023-07-20T04:57:04;96758.38;;;17.89;65.76
48800;BME280;34611;47.964;7.982;2023-07-20T05:04:05;96758.38;;;17.89;65.70
48800;BME280;34611;47.964;7.982;2023-07-20T05:11:06;96763.63;;;17.89;65.84
48800;BME280;34611;47.964;7.982;2023-07-20T05:18:07;96763.63;;;17.89;65.76
48800;BME280;34611;47.964;7.982;2023-07-20T05:25:08;96765.44;;;17.89;65.77
48800;BME280;34611;47.964;7.982;2023-07-20T05:32:09;96759.22;;;17.90;65.75
48800;BME280;34611;47.964;7.982;2023-07-20T05:39:10;96763.84;;;17.88;65.85
48800;BME280;34611;47.964;7.982;2023-07-20T05:46:10;96762.81;;;17.89;65.79
48800;BME280;34611;47.964;7.982;2023-07-20T05:53:10;96770.72;;;17.89;65.79
48800;BME280;34611;47.964;7.982;2023-07-20T06:00:10;96779.41;;;17.89;65.81
48800;BME280;34611;47.964;7.982;2023-07-20T06:07:12;96770.72;;;17.89;65.83
48800;BME280;34611;47.964;7.982;2023-07-20T06:14:12;96773.34;;;17.89;65.84
48800;BME280;34611;47.964;7.982;2023-07-20T06:21:13;96769.09;;;17.88;65.83
48800;BME280;34611;47.964;7.982;2023-07-20T06:28:13;96771.72;;;17.88;65.83
48800;BME280;34611;47.964;7.982;2023-07-20T06:35:14;96768.06;;;17.89;65.76
48800;BME280;34611;47.964;7.982;2023-07-20T06:42:14;96766.25;;;17.89;65.82
48800;BME280;34611;47.964;7.982;2023-07-20T06:49:27;96764.81;;;17.87;65.86
48800;BME280;34611;47.964;7.982;2023-07-20T06:56:27;96767.28;;;17.88;65.81
48800;BME280;34611;47.964;7.982;2023-07-20T07:03:28;96764.63;;;17.88;65.83
48800;BME280;34611;47.964;7.982;2023-07-20T07:10:28;96761.84;;;17.90;65.90
48800;BME280;34611;47.964;7.982;2023-07-20T07:17:28;96755.94;;;17.88;65.72
48800;BME280;34611;47.964;7.982;2023-07-20T07:24:31;96759.38;;;17.88;65.90
48800;BME280;34611;47.964;7.982;2023-07-20T07:31:34;96766.47;;;17.88;65.76
48800;BME280;34611;47.964;7.982;2023-07-20T07:38:35;96766.47;;;17.88;65.81
48800;BME280;34611;47.964;7.982;2023-07-20T07:45:36;96766.47;;;17.88;65.74
48800;BME280;34611;47.964;7.982;2023-07-20T07:52:39;96762.00;;;17.88;65.84
48800;BME280;34611;47.964;7.982;2023-07-20T07:59:39;96762.81;;;17.89;65.87
48800;BME280;34611;47.964;7.982;2023-07-20T08:06:40;96764.47;;;17.90;65.92
48800;BME280;34611;47.964;7.982;2023-07-20T08:13:40;96761.84;;;17.90;65.85
48800;BME280;34611;47.964;7.982;2023-07-20T08:20:43;96756.75;;;17.88;65.76
48800;BME280;34611;47.964;7.982;2023-07-20T08:27:43;96760.19;;;17.89;65.73
48800;BME280;34611;47.964;7.982;2023-07-20T08:34:46;96760.19;;;17.89;65.71
48800;BME280;34611;47.964;7.982;2023-07-20T08:41:46;96750.69;;;17.88;65.88
48800;BME280;34611;47.964;7.982;2023-07-20T08:48:46;96754.13;;;17.88;65.87
48800;BME280;34611;47.964;7.982;2023-07-20T08:55:48;96740.97;;;17.88;65.84
48800;BME280;34611;47.964;7.982;2023-07-20T09:02:50;96755.94;;;17.88;65.82
48800;BME280;34611;47.964;7.982;2023-07-20T09:09:51;96754.94;;;17.89;65.72
48800;BME280;34611;47.964;7.982;2023-07-20T09:16:55;96732.28;;;17.88;65.75
48800;BME280;34611;47.964;7.982;2023-07-20T09:23:58;96740.16;;;17.88;65.88
48800;BME280;34611;47.964;7.982;2023-07-20T09:30:58;96740.16;;;17.88;65.77
48800;BME280;34611;47.964;7.982;2023-07-20T09:38:15;96734.91;;;17.88;65.80
48800;BME280;34611;47.964;7.982;2023-07-20T09:45:16;96724.38;;;17.88;65.85
48800;BME280;34611;47.964;7.982;2023-07-20T09:52:16;96719.94;;;17.88;65.85
48800;BME280;34611;47.964;7.982;2023-07-20T09:59:17;96710.22;;;17.89;65.77
48800;BME280;34611;47.964;7.982;2023-07-20T10:06:19;96704.97;;;17.89;65.84
48800;BME280;34611;47.964;7.982;2023-07-20T10:13:29;96710.22;;;17.89;65.79
48800;BME280;34611;47.964;7.982;2023-07-20T10:20:30;96692.81;;;17.88;65.73
48800;BME280;34611;47.964;7.982;2023-07-20T10:27:32;96687.56;;;17.88;65.83
48800;BME280;34611;47.964;7.982;2023-07-20T10:34:32;96680.50;;;17.88;65.89
48800;BME280;34611;47.964;7.982;2023-07-20T10:41:33;96678.66;;;17.89;65.81
48800;BME280;34611;47.964;7.982;2023-07-20T10:48:34;96676.22;;;17.87;65.73
48800;BME280;34611;47.964;7.982;2023-07-20T10:55:34;96670.78;;;17.89;65.81
48800;BME280;34611;47.964;7.982;2023-07-20T11:02:41;96669.97;;;17.88;65.67
48800;BME280;34611;47.964;7.982;2023-07-20T11:09:42;96659.44;;;17.88;65.65
48800;BME280;34611;47.964;7.982;2023-07-20T11:16:43;96644.47;;;17.89;65.84
48800;BME280;34611;47.964;7.982;2023-07-20T11:23:44;96645.28;;;17.89;65.75
48800;BME280;34611;47.964;7.982;2023-07-20T11:30:45;96634.97;;;17.88;65.88
48800;BME280;34611;47.964;7.982;2023-07-20T11:37:50;96631.34;;;17.89;65.77
48800;BME280;34611;47.964;7.982;2023-07-20T11:44:51;96621.00;;;17.87;65.68
48800;BME280;34611;47.964;7.982;2023-07-20T11:51:51;96613.94;;;17.88;65.91
48800;BME280;34611;47.964;7.982;2023-07-20T11:58:56;96613.09;;;17.87;65.77
48800;BME280;34611;47.964;7.982;2023-07-20T12:06:06;96609.50;;;17.88;65.82
48800;BME280;34611;47.964;7.982;2023-07-20T12:13:06;96596.34;;;17.88;65.85
48800;BME280;34611;47.964;7.982;2023-07-20T12:20:07;96598.16;;;17.88;65.85
48800;BME280;34611;47.964;7.982;2023-07-20T12:27:08;96594.53;;;17.89;65.88
48800;BME280;34611;47.964;7.982;2023-07-20T12:34:08;96592.06;;;17.87;65.79
48800;BME280;34611;47.964;7.982;2023-07-20T12:41:10;96578.75;;;17.89;65.87
48800;BME280;34611;47.964;7.982;2023-07-20T12:48:12;96570.84;;;17.89;65.70
48800;BME280;34611;47.964;7.982;2023-07-20T12:55:13;96556.09;;;17.88;65.80
48800;BME280;34611;47.964;7.982;2023-07-20T13:02:13;96557.72;;;17.89;65.82
48800;BME280;34611;47.964;7.982;2023-07-20T13:09:13;96541.94;;;17.89;65.84
48800;BME280;34611;47.964;7.982;2023-07-20T13:16:13;96541.13;;;17.88;65.75
48800;BME280;34611;47.964;7.982;2023-07-20T13:23:15;96537.69;;;17.88;65.82
48800;BME280;34611;47.964;7.982;2023-07-20T13:30:15;96529.78;;;17.88;65.78
48800;BME280;34611;47.964;7.982;2023-07-20T13:37:16;96524.53;;;17.88;65.85
48800;BME280;34611;47.964;7.982;2023-07-20T13:44:17;96526.97;;;17.89;65.82
48800;BME280;34611;47.964;7.982;2023-07-20T13:51:17;96531.41;;;17.89;65.82
48800;BME280;34611;47.964;7.982;2023-07-20T13:58:18;96522.53;;;17.90;65.79
48800;BME280;34611;47.964;7.982;2023-07-20T14:05:18;96508.75;;;17.88;65.86
48800;BME280;34611;47.964;7.982;2023-07-20T14:12:19;96509.38;;;17.90;65.84
48800;BME280;34611;47.964;7.982;2023-07-20T14:19:19;96507.75;;;17.89;65.70
48800;BME280;34611;47.964;7.982;2023-07-20T14:26:20;96501.50;;;17.90;65.97
48800;BME280;34611;47.964;7.982;2023-07-20T14:33:20;96484.88;;;17.89;65.72
48800;BME280;34611;47.964;7.982;2023-07-20T14:40:22;96477.19;;;17.88;65.85
48800;BME280;34611;47.964;7.982;2023-07-20T14:47:22;96473.56;;;17.89;65.80
48800;BME280;34611;47.964;7.982;2023-07-20T14:54:22;96468.31;;;17.89;65.67
48800;BME280;34611;47.964;7.982;2023-07-20T15:01:22;96469.94;;;17.90;65.84
48800;BME280;34611;47.964;7.982;2023-07-20T15:08:23;96465.50;;;17.90;65.73
48800;BME280;34611;47.964;7.982;2023-07-20T15:15:24;96454.34;;;17.88;65.83
48800;BME280;34611;47.964;7.982;2023-07-20T15:22:24;96453.31;;;17.89;65.82
48800;BME280;34611;47.964;7.982;2023-07-20T15:29:24;96443.03;;;17.88;65.69
48800;BME280;34611;47.964;7.982;2023-07-20T15:36:24;96425.41;;;17.88;65.80
48800;BME280;34611;47.964;7.982;2023-07-20T15:43:25;96422.63;;;17.90;66.00
48800;BME280;34611;47.964;7.982;2023-07-20T15:50:25;96430.69;;;17.88;65.79
48800;BME280;34611;47.964;7.982;2023-07-20T15:57:25;96413.06;;;17.89;65.89
48800;BME280;34611;47.964;7.982;2023-07-20T16:04:25;96408.63;;;17.89;65.71
48800;BME280;34611;47.964;7.982;2023-07-20T16:11:26;96405.00;;;17.90;65.84
48800;BME280;34611;47.964;7.982;2023-07-20T16:18:26;96407.00;;;17.88;65.72
48800;BME280;34611;47.964;7.982;2023-07-20T16:25:26;96404.22;;;17.90;65.72
48800;BME280;34611;47.964;7.982;2023-07-20T16:32:26;96408.44;;;17.91;65.69
48800;BME280;34611;47.964;7.982;2023-07-20T16:39:27;96406.00;;;17.89;65.80
48800;BME280;34611;47.964;7.982;2023-07-20T16:46:27;96401.56;;;17.90;65.83
48800;BME280;34611;47.964;7.982;2023-07-20T16:53:27;96397.94;;;17.91;65.79
48800;BME280;34611;47.964;7.982;2023-07-20T17:00:28;96389.25;;;17.90;65.73
48800;BME280;34611;47.964;7.982;2023-07-20T17:07:28;96385.81;;;17.90;65.84
48800;BME280;34611;47.964;7.982;2023-07-20T17:14:28;96388.44;;;17.90;65.71
48800;BME280;34611;47.964;7.982;2023-07-20T17:21:28;96396.31;;;17.90;65.76
48800;BME280;34611;47.964;7.982;2023-07-20T17:28:30;96391.06;;;17.90;65.78
48800;BME280;34611;47.964;7.982;2023-07-20T17:35:31;96388.44;;;17.90;65.75
48800;BME280;34611;47.964;7.982;2023-07-20T17:42:31;96381.53;;;17.89;65.80
48800;BME280;34611;47.964;7.982;2023-07-20T17:49:31;96385.81;;;17.90;65.70
48800;BME280;34611;47.964;7.982;2023-07-20T17:56:31;96390.03;;;17.91;65.83
48800;BME280;34611;47.964;7.982;2023-07-20T18:03:33;96383.78;;;17.92;65.62
48800;BME280;34611;47.964;7.982;2023-07-20T18:10:33;96389.25;;;17.90;65.79
48800;BME280;34611;47.964;7.982;2023-07-20T18:17:34;96388.44;;;17.90;65.70
48800;BME280;34611;47.964;7.982;2023-07-20T18:24:34;96380.53;;;17.90;65.72
48800;BME280;34611;47.964;7.982;2023-07-20T18:31:35;96382.16;;;17.91;65.81
48800;BME280;34611;47.964;7.982;2023-07-20T18:38:35;96388.22;;;17.91;65.79
48800;BME280;34611;47.964;7.982;2023-07-20T18:45:35;96393.47;;;17.91;65.71
48800;BME280;34611;47.964;7.982;2023-07-20T18:52:35;96392.66;;;17.91;65.80
48800;BME280;34611;47.964;7.982;2023-07-20T18:59:36;96396.31;;;17.90;65.63
48800;BME280;34611;47.964;7.982;2023-07-20T19:06:36;96397.94;;;17.91;65.82
48800;BME280;34611;47.964;7.982;2023-07-20T19:13:38;96400.56;;;17.91;65.70
48800;BME280;34611;47.964;7.982;2023-07-20T19:20:38;96403.19;;;17.91;65.84
48800;BME280;34611;47.964;7.982;2023-07-20T19:27:38;96409.25;;;17.91;65.81
48800;BME280;34611;47.964;7.982;2023-07-20T19:34:39;96421.59;;;17.91;65.79
48800;BME280;34611;47.964;7.982;2023-07-20T19:41:39;96424.22;;;17.91;65.79
48800;BME280;34611;47.964;7.982;2023-07-20T19:48:39;96413.72;;;17.91;65.89
48800;BME280;34611;47.964;7.982;2023-07-20T19:55:39;96423.25;;;17.92;65.71
48800;BME280;34611;47.964;7.982;2023-07-20T20:02:40;96429.50;;;17.91;65.78
48800;BME280;34611;47.964;7.982;2023-07-20T20:09:40;96431.31;;;17.90;65.84
48800;BME280;34611;47.964;7.982;2023-07-20T20:16:41;96447.91;;;17.91;65.86
48800;BME280;34611;47.964;7.982;2023-07-20T20:23:41;96444.47;;;17.90;65.74
48800;BME280;34611;47.964;7.982;2023-07-20T20:30:43;96448.69;;;17.91;65.72
48800;BME280;34611;47.964;7.982;2023-07-20T20:37:44;96456.59;;;17.91;65.82
48800;BME280;34611;47.964;7.982;2023-07-20T20:44:45;96450.53;;;17.91;65.79
48800;BME280;34611;47.964;7.982;2023-07-20T20:51:45;96453.97;;;17.91;65.83
48800;BME280;34611;47.964;7.982;2023-07-20T20:58:45;96441.81;;;17.90;65.84
48800;BME280;34611;47.964;7.982;2023-07-20T21:05:46;96441.81;;;17.90;65.71
48800;BME280;34611;47.964;7.982;2023-07-20T21:12:46;96451.34;;;17.91;65.87
48800;BME280;34611;47.964;7.982;2023-07-20T21:19:46;96450.53;;;17.91;65.84
48800;BME280;34611;47.964;7.982;2023-07-20T21:26:46;96455.78;;;17.91;65.88
48800;BME280;34611;47.964;7.982;2023-07-20T21:33:47;96444.47;;;17.90;65.75
48800;BME280;34611;47.964;7.982;2023-07-20T21:40:47;96441.81;;;17.90;65.84
48800;BME280;34611;47.964;7.982;2023-07-20T21:47:48;96446.28;;;17.90;65.85
48800;BME280;34611;47.964;7.982;2023-07-20T21:54:48;96439.00;;;17.62;61.18
48800;BME280;34611;47.964;7.982;2023-07-20T22:01:48;96444.38;;;17.54;60.38
48800;BME280;34611;47.964;7.982;2023-07-20T22:08:49;96430.59;;;17.52;60.17
48800;BME280;34611;47.964;7.982;2023-07-20T22:15:51;96440.22;;;17.45;60.01
48800;BME280;34611;47.964;7.982;2023-07-20T22:22:51;96439.41;;;17.44;60.40
48800;BME280;34611;47.964;7.982;2023-07-20T22:29:51;96439.31;;;17.37;59.93
48800;BME280;34611;47.964;7.982;2023-07-20T22:36:52;96440.56;;;17.42;60.13
48800;BME280;34611;47.964;7.982;2023-07-20T22:43:53;96435.13;;;17.43;60.11
48800;BME280;34611;47.964;7.982;2023-07-20T22:50:53;96432.81;;;17.33;59.98
48800;BME280;34611;47.964;7.982;2023-07-20T22:57:53;96430.34;;;17.32;60.04
48800;BME280;34611;47.964;7.982;2023-07-20T23:04:54;96432.16;;;17.31;59.85
48800;BME280;34611;47.964;7.982;2023-07-20T23:11:55;96422.47;;;17.32;59.83
48800;BME280;34611;47.964;7.982;2023-07-20T23:18:58;96422.00;;;17.28;59.78
48800;BME280;34611;47.964;7.982;2023-07-20T23:25:59;96426.88;;;17.16;60.30
48800;BME280;34611;47.964;7.982;2023-07-20T23:32:59;96413.03;;;17.08;60.58
48800;BME280;34611;47.964;7.982;2023-07-20T23:39:59;96407.44;;;17.11;60.63
48800;BME280;34611;47.964;7.982;2023-07-20T23:47:00;96415.94;;;17.13;60.22
48800;BME280;34611;47.964;7.982;2023-07-20T23:54:00;96403.44;;;17.15;60.36
